SBCY/CGB METAR and TAF weather

Enter ICAO airport designator
Station Type Date Time Source
SBCY METAR 2019/08/24 07:00 UTC NOAA

SBCY 240700Z 20006KT CAVOK 24/15 Q1014


Station Type Date Time Source
SBCY Decoded METAR 2019/08/24 07:00 UTC NOAA

Station name not available
Aug 24, 2019 - 03:00 AM EDT / 2019.08.24 0700 UTC
Wind: from the SSW (200 degrees) at 7 MPH (6 KT):0
Visibility: greater than 7 mile(s):0
Temperature: 75 F (24 C)
Dew Point: 59 F (15 C)
Relative Humidity: 57%
Pressure (altimeter): 29.94 in. Hg (1014 hPa)
ob: SBCY 240700Z 20006KT CAVOK 24/15 Q1014
cycle: 7

Station Type Date Time Source
SBCY TAF 2019/08/24 06:27 UTC NOAA

TAF SBCY 240300Z 2406/2506 18005KT 7000 NSCTN23/2410Z TX37/2419Z
BECMG 2412/2414 07005KT
BECMG 2415/2417 14010KT
BECMG 2423/2501 05005KT
RMK PHI

Example: see airport list